createdAt,value
2019-03-19T00:02:15.007Z,3.76
2019-03-19T00:04:43.412Z,3.71
2019-03-19T00:07:31.054Z,3.64
2019-03-19T00:10:18.585Z,3.64
2019-03-19T00:12:47.045Z,3.71
2019-03-19T00:15:34.563Z,3.64
2019-03-19T00:18:22.464Z,3.68
2019-03-19T00:20:50.863Z,3.84
2019-03-19T00:23:38.515Z,3.82
2019-03-19T00:26:26.029Z,3.84
2019-03-19T00:28:54.434Z,3.88
2019-03-19T00:34:11.376Z,3.80
2019-03-19T00:36:39.783Z,3.88
2019-03-19T00:39:08.183Z,3.87
2019-03-19T00:41:55.833Z,3.95
2019-03-19T00:44:24.244Z,4.03
2019-03-19T00:46:52.629Z,3.90
2019-03-19T00:51:55.308Z,3.76
2019-03-19T00:57:17.269Z,3.71
2019-03-19T00:59:45.670Z,3.72
2019-03-19T01:02:14.068Z,3.74
2019-03-19T01:07:16.460Z,3.58
2019-03-19T01:12:18.819Z,3.62
2019-03-19T01:15:06.467Z,3.52
2019-03-19T01:20:41.555Z,3.81
2019-03-19T01:23:29.065Z,3.83
2019-03-19T01:25:57.491Z,3.75
2019-03-19T01:28:44.993Z,3.79
2019-03-19T01:31:13.393Z,3.54
2019-03-19T01:34:00.920Z,3.42
2019-03-19T01:36:29.324Z,3.37
2019-03-19T01:39:16.850Z,3.29
2019-03-19T01:41:45.579Z,3.33
2019-03-19T01:44:13.985Z,3.43
2019-03-19T01:46:42.384Z,3.46
2019-03-19T01:54:19.610Z,3.58
2019-03-19T01:56:48.004Z,3.61
2019-03-19T01:59:35.529Z,3.54
2019-03-19T02:02:03.929Z,3.64
2019-03-19T02:07:26.615Z,3.40
2019-03-19T02:09:55.025Z,3.20
2019-03-19T02:12:42.668Z,3.18
2019-03-19T02:15:30.416Z,3.29
2019-03-19T02:18:17.935Z,3.37
2019-03-19T02:21:05.461Z,3.66
2019-03-19T02:23:52.973Z,3.37
2019-03-19T02:26:21.376Z,3.40
2019-03-19T02:29:10.912Z,3.52
2019-03-19T02:31:39.147Z,3.35
2019-03-19T02:34:26.670Z,3.23
2019-03-19T02:37:14.175Z,3.36
2019-03-19T02:39:42.583Z,3.55
2019-03-19T02:42:30.226Z,3.51
2019-03-19T02:44:58.639Z,3.56
2019-03-19T02:47:46.284Z,3.18
2019-03-19T02:53:07.962Z,2.88
2019-03-19T02:55:36.371Z,2.77
2019-03-19T02:58:44.923Z,2.79
2019-03-19T03:01:32.586Z,2.88
2019-03-19T03:04:00.985Z,2.88
2019-03-19T03:06:29.390Z,2.82
2019-03-19T03:09:17.136Z,2.84
2019-03-19T03:14:19.944Z,2.78
2019-03-19T03:16:48.356Z,2.86
2019-03-19T03:22:04.198Z,3.15
2019-03-19T03:24:51.944Z,3.02
2019-03-19T03:27:20.604Z,3.07
2019-03-19T03:29:49.008Z,3.28
2019-03-19T03:32:17.418Z,3.28
2019-03-19T03:35:05.142Z,3.41
2019-03-19T03:37:52.774Z,3.47
2019-03-19T03:41:01.088Z,3.66
2019-03-19T03:46:16.928Z,3.70
2019-03-19T03:49:04.575Z,3.83
2019-03-19T03:51:32.980Z,3.60
2019-03-19T03:54:20.493Z,3.42
2019-03-19T03:57:01.185Z,3.34
2019-03-19T04:02:25.711Z,3.43
2019-03-19T04:04:54.103Z,3.27
2019-03-19T04:10:55.975Z,3.35
2019-03-19T04:13:43.484Z,3.27
2019-03-19T04:16:31.011Z,3.36
2019-03-19T04:19:18.655Z,3.08
2019-03-19T04:21:47.056Z,3.36
2019-03-19T04:24:15.454Z,3.29
2019-03-19T04:26:43.862Z,3.20
2019-03-19T04:29:31.502Z,3.21
2019-03-19T04:31:59.911Z,3.40
2019-03-19T04:34:47.805Z,3.36
2019-03-19T04:37:16.207Z,3.31
2019-03-19T04:39:44.603Z,3.37
2019-03-19T04:42:13.011Z,3.40
2019-03-19T04:45:00.646Z,3.55
2019-03-19T04:47:29.057Z,3.49
2019-03-19T04:49:57.454Z,3.53
2019-03-19T04:52:25.862Z,3.65
2019-03-19T04:55:13.371Z,3.71
2019-03-19T04:58:01.151Z,3.64
2019-03-19T05:00:48.903Z,3.60
2019-03-19T05:03:36.543Z,3.55
2019-03-19T05:06:05.021Z,3.38
2019-03-19T05:08:52.665Z,3.46
2019-03-19T05:11:40.306Z,3.39
2019-03-19T05:17:15.486Z,3.13
2019-03-19T05:25:45.333Z,3.21
2019-03-19T05:28:33.076Z,3.03
2019-03-19T05:33:54.919Z,3.23
2019-03-19T05:36:23.472Z,3.26
2019-03-19T05:38:51.958Z,3.38
2019-03-19T05:41:20.457Z,3.28
2019-03-19T05:43:48.858Z,3.33
2019-03-19T05:46:17.261Z,3.24
2019-03-19T05:49:04.789Z,3.32
2019-03-19T05:51:33.199Z,3.30
2019-03-19T05:54:20.712Z,3.60
2019-03-19T05:57:08.231Z,3.85
2019-03-19T05:59:55.742Z,3.98
2019-03-19T06:02:43.399Z,4.07
2019-03-19T06:05:51.708Z,4.39
2019-03-19T06:08:20.116Z,4.87
2019-03-19T06:11:07.767Z,5.39
2019-03-19T06:13:55.423Z,5.49
2019-03-19T06:16:23.835Z,5.70
2019-03-19T06:19:11.474Z,5.53
2019-03-19T06:21:39.879Z,5.77
2019-03-19T06:26:55.722Z,6.80
2019-03-19T06:29:43.235Z,7.31
2019-03-19T06:32:30.757Z,7.07
2019-03-19T06:34:59.155Z,6.52
2019-03-19T06:37:46.807Z,5.95
2019-03-19T06:40:55.103Z,6.20
2019-03-19T06:43:42.999Z,7.29
2019-03-19T06:46:30.644Z,7.66
2019-03-19T06:48:59.048Z,7.12
2019-03-19T06:51:49.636Z,7.14
2019-03-19T06:54:37.153Z,8.17
2019-03-19T06:57:24.682Z,10.25
2019-03-19T06:59:53.081Z,12.12
2019-03-19T07:02:40.625Z,13.60
2019-03-19T07:08:23.283Z,15.40
2019-03-19T07:11:11.021Z,16.18
2019-03-19T07:13:58.682Z,17.49
2019-03-19T07:19:14.564Z,16.47
2019-03-19T07:22:02.074Z,17.05
2019-03-19T07:30:10.677Z,15.33
2019-03-19T07:32:58.328Z,14.25
2019-03-19T07:35:45.973Z,14.20
2019-03-19T07:38:14.394Z,12.32
2019-03-19T07:40:42.797Z,10.97
2019-03-19T07:43:11.204Z,10.49
2019-03-19T07:45:58.723Z,9.58
2019-03-19T07:48:46.246Z,8.66
2019-03-19T07:51:14.639Z,8.10
2019-03-19T07:53:43.037Z,8.18
2019-03-19T07:56:11.443Z,8.68
2019-03-19T07:58:45.175Z,9.58
2019-03-19T08:01:09.970Z,11.41
2019-03-19T08:03:57.720Z,12.71
2019-03-19T08:06:45.243Z,14.08
2019-03-19T08:09:13.655Z,14.71
2019-03-19T08:11:42.051Z,15.57
2019-03-19T08:14:29.578Z,16.00
2019-03-19T08:16:57.981Z,17.14
2019-03-19T08:22:00.416Z,18.19
2019-03-19T08:24:28.839Z,18.79
2019-03-19T08:26:57.244Z,18.87
2019-03-19T08:29:25.651Z,19.06
2019-03-19T08:32:13.394Z,19.50
2019-03-19T08:35:00.917Z,19.03
2019-03-19T08:37:29.314Z,19.17
2019-03-19T08:39:57.730Z,19.75
2019-03-19T08:42:45.257Z,19.81
2019-03-19T08:45:53.582Z,19.19
2019-03-19T08:48:22.005Z,18.98
2019-03-19T08:53:37.860Z,16.64
2019-03-19T08:56:06.256Z,14.47
2019-03-19T08:58:53.918Z,14.77
2019-03-19T09:01:22.322Z,14.12
2019-03-19T09:04:10.069Z,15.02
2019-03-19T09:06:57.579Z,15.87
2019-03-19T09:11:59.964Z,16.90
2019-03-19T09:14:28.371Z,17.08
2019-03-19T09:17:16.192Z,16.50
2019-03-19T09:19:44.602Z,15.73
2019-03-19T09:22:12.998Z,14.21
2019-03-19T09:24:41.409Z,14.16
2019-03-19T09:27:09.807Z,14.48
2019-03-19T09:29:38.215Z,14.26
2019-03-19T09:32:06.904Z,14.18
2019-03-19T09:34:35.312Z,13.79
2019-03-19T09:37:03.711Z,13.68
2019-03-19T09:39:32.445Z,12.67
2019-03-19T09:42:00.843Z,12.33
2019-03-19T09:44:29.244Z,12.41
2019-03-19T09:46:57.639Z,13.24
2019-03-19T09:49:26.048Z,13.64
2019-03-19T09:51:54.446Z,12.89
2019-03-19T09:54:42.096Z,11.33
2019-03-19T09:57:10.493Z,10.26
2019-03-19T09:59:38.895Z,9.96
2019-03-19T10:02:07.299Z,9.67
2019-03-19T10:04:35.713Z,10.36
2019-03-19T10:07:23.363Z,10.97
2019-03-19T10:14:59.886Z,12.68
2019-03-19T10:17:47.536Z,12.33
2019-03-19T10:20:35.296Z,12.18
2019-03-19T10:23:03.699Z,11.80
2019-03-19T10:25:51.591Z,11.89
2019-03-19T10:28:19.989Z,12.05
2019-03-19T10:30:48.403Z,12.15
2019-03-19T10:33:16.805Z,11.63
2019-03-19T10:36:04.328Z,11.24
2019-03-19T10:38:32.729Z,10.70
2019-03-19T10:41:20.381Z,10.65
2019-03-19T10:46:22.757Z,10.25
2019-03-19T10:49:10.280Z,10.08
2019-03-19T10:51:38.685Z,10.01
2019-03-19T10:54:07.088Z,10.38
2019-03-19T10:56:35.760Z,10.47
2019-03-19T11:02:18.273Z,10.49
2019-03-19T11:04:46.730Z,10.60
2019-03-19T11:10:02.647Z,11.22
2019-03-19T11:12:31.067Z,11.65
2019-03-19T11:14:59.499Z,11.60
2019-03-19T11:17:47.267Z,11.60
2019-03-19T11:20:55.632Z,11.31
2019-03-19T11:23:24.041Z,11.25
2019-03-19T11:25:54.639Z,11.12
2019-03-19T11:28:22.611Z,10.68
2019-03-19T11:30:51.022Z,10.21
2019-03-19T11:33:19.458Z,10.25
2019-03-19T11:36:07.120Z,10.49
2019-03-19T11:38:35.531Z,10.47
2019-03-19T11:43:58.491Z,11.08
2019-03-19T11:46:26.907Z,11.13
2019-03-19T11:49:14.423Z,10.49
2019-03-19T11:51:42.896Z,10.17
2019-03-19T11:54:11.342Z,10.32
2019-03-19T11:56:39.787Z,9.99
2019-03-19T11:59:08.174Z,9.84
2019-03-19T12:01:36.590Z,9.99
2019-03-19T12:04:24.311Z,9.99
2019-03-19T12:06:52.753Z,10.14
2019-03-19T12:09:21.170Z,10.73
2019-03-19T12:11:49.578Z,11.03
2019-03-19T12:17:05.427Z,11.19
2019-03-19T12:19:53.081Z,10.97
2019-03-19T12:22:21.482Z,10.71
2019-03-19T12:25:09.132Z,10.48
2019-03-19T12:27:37.526Z,10.49
2019-03-19T12:30:26.539Z,10.34
2019-03-19T12:33:14.513Z,10.49
2019-03-19T12:38:16.932Z,11.01
2019-03-19T12:41:04.586Z,11.33
2019-03-19T12:43:33.006Z,11.55
2019-03-19T12:46:01.413Z,11.76
2019-03-19T12:48:49.052Z,11.39
2019-03-19T12:51:36.573Z,11.30
2019-03-19T12:54:44.877Z,11.39
2019-03-19T12:57:32.400Z,11.39
2019-03-19T13:00:19.922Z,11.19
2019-03-19T13:02:48.335Z,11.11
2019-03-19T13:05:16.813Z,11.01
2019-03-19T13:11:30.367Z,10.36
2019-03-19T13:13:58.761Z,10.24
2019-03-19T13:16:27.205Z,10.07
2019-03-19T13:19:14.732Z,10.33
2019-03-19T13:21:43.158Z,10.38
2019-03-19T13:24:11.570Z,10.58
2019-03-19T13:26:40.020Z,10.69
2019-03-19T13:29:08.417Z,10.93
2019-03-19T13:31:36.833Z,10.95
2019-03-19T13:34:24.490Z,11.40
2019-03-19T13:36:52.921Z,11.43
2019-03-19T13:39:40.605Z,11.56
2019-03-19T13:42:28.157Z,11.60
2019-03-19T13:47:44.025Z,12.10
2019-03-19T13:50:52.337Z,12.29
2019-03-19T13:53:20.730Z,12.30
2019-03-19T13:55:49.135Z,12.45
2019-03-19T13:58:17.539Z,11.83
2019-03-19T14:01:05.193Z,11.44
2019-03-19T14:06:40.156Z,11.62
2019-03-19T14:09:48.467Z,11.39
2019-03-19T14:12:16.880Z,11.39
2019-03-19T14:14:45.271Z,11.15
2019-03-19T14:17:32.924Z,11.23
2019-03-19T14:23:28.677Z,11.45
2019-03-19T14:26:16.194Z,11.29
2019-03-19T14:28:44.587Z,10.98
2019-03-19T14:31:12.991Z,11.01
2019-03-19T14:33:41.385Z,10.95
2019-03-19T14:36:29.040Z,10.74
2019-03-19T14:39:16.679Z,11.09
2019-03-19T14:42:04.331Z,11.30
2019-03-19T14:44:32.732Z,11.07
2019-03-19T14:47:20.258Z,11.03
2019-03-19T14:49:49.927Z,11.30
2019-03-19T14:52:38.026Z,10.86
2019-03-19T14:55:46.333Z,10.89
2019-03-19T14:58:14.738Z,11.09
2019-03-19T15:01:18.946Z,11.15
2019-03-19T15:03:59.007Z,11.18
2019-03-19T15:06:46.542Z,11.46
2019-03-19T15:09:34.057Z,11.72
2019-03-19T15:12:02.466Z,11.78
2019-03-19T15:17:37.419Z,11.58
2019-03-19T15:20:45.730Z,11.72
2019-03-19T15:23:14.141Z,11.63
2019-03-19T15:25:42.538Z,11.68
2019-03-19T15:28:30.280Z,11.67
2019-03-19T15:30:58.682Z,11.40
2019-03-19T15:33:46.341Z,11.35
2019-03-19T15:36:14.737Z,11.15
2019-03-19T15:39:02.284Z,11.09
2019-03-19T15:41:30.681Z,11.11
2019-03-19T15:49:07.139Z,10.94
2019-03-19T15:51:35.540Z,10.70
2019-03-19T15:54:03.944Z,10.46
2019-03-19T15:56:44.980Z,10.52
2019-03-19T15:59:32.516Z,10.70
2019-03-19T16:02:01.022Z,10.94
2019-03-19T16:04:48.584Z,11.03
2019-03-19T16:07:17.018Z,11.15
2019-03-19T16:09:45.436Z,11.32
2019-03-19T16:12:14.205Z,11.28
2019-03-19T16:14:42.619Z,11.50
2019-03-19T16:17:30.161Z,11.60
2019-03-19T16:19:58.565Z,11.47
2019-03-19T16:22:26.998Z,11.37
2019-03-19T16:30:37.464Z,11.06
2019-03-19T16:33:05.969Z,10.82
2019-03-19T16:35:53.494Z,10.60
2019-03-19T16:38:21.893Z,10.59
2019-03-19T16:41:09.541Z,10.49
2019-03-19T16:43:57.186Z,10.54
2019-03-19T16:46:25.582Z,10.25
2019-03-19T16:49:13.232Z,10.15
2019-03-19T16:52:00.871Z,10.06
2019-03-19T16:54:29.279Z,10.11
2019-03-19T16:57:16.929Z,10.25
2019-03-19T16:59:45.401Z,10.19
2019-03-19T17:02:13.794Z,10.24
2019-03-19T17:04:42.231Z,10.26
2019-03-19T17:09:58.105Z,10.12
2019-03-19T17:12:26.529Z,10.06
2019-03-19T17:14:54.947Z,9.92
2019-03-19T17:17:23.365Z,10.07
2019-03-19T17:19:51.797Z,10.00
2019-03-19T17:22:20.223Z,9.81
2019-03-19T17:25:07.771Z,9.86
2019-03-19T17:30:30.612Z,9.81
2019-03-19T17:32:59.065Z,9.69
2019-03-19T17:35:27.596Z,9.58
2019-03-19T17:37:56.013Z,9.58
2019-03-19T17:40:24.437Z,9.67
2019-03-19T17:42:52.857Z,9.71
2019-03-19T17:45:40.559Z,9.62
2019-03-19T17:48:28.101Z,9.57
2019-03-19T17:51:36.443Z,9.61
2019-03-19T17:54:24.070Z,9.58
2019-03-19T17:57:11.581Z,9.56
2019-03-19T17:59:40.003Z,9.51
2019-03-19T18:02:08.410Z,9.37
2019-03-19T18:04:55.955Z,9.36
2019-03-19T18:07:24.369Z,9.26
2019-03-19T18:09:52.791Z,9.13
2019-03-19T18:12:21.193Z,9.08
2019-03-19T18:15:08.883Z,9.03
2019-03-19T18:17:37.303Z,8.71
2019-03-19T18:20:45.642Z,8.64
2019-03-19T18:25:48.446Z,8.58
2019-03-19T18:28:16.876Z,8.54
2019-03-19T18:30:45.338Z,8.48
2019-03-19T18:33:33.043Z,8.40
2019-03-19T18:36:01.427Z,8.34
2019-03-19T18:38:48.949Z,8.27
2019-03-19T18:41:17.356Z,8.16
2019-03-19T18:44:04.972Z,7.80
2019-03-19T18:46:33.402Z,7.75
2019-03-19T18:51:55.432Z,7.29
2019-03-19T18:56:57.780Z,7.00
2019-03-19T18:59:26.213Z,6.93
2019-03-19T19:02:13.857Z,7.02
2019-03-19T19:07:16.251Z,6.97
2019-03-19T19:09:44.659Z,6.89
2019-03-19T19:12:32.324Z,6.87
2019-03-19T19:15:19.872Z,6.83
2019-03-19T19:17:48.311Z,6.60
2019-03-19T19:20:56.635Z,6.45
2019-03-19T19:23:25.061Z,6.50
2019-03-19T19:31:42.742Z,6.38
2019-03-19T19:34:11.183Z,6.32
2019-03-19T19:36:58.841Z,6.21
2019-03-19T19:39:27.302Z,6.18
2019-03-19T19:42:14.964Z,6.12
2019-03-19T19:44:43.399Z,5.91
2019-03-19T19:47:11.817Z,5.75
2019-03-19T19:49:40.284Z,5.55
2019-03-19T19:52:08.700Z,5.45
2019-03-19T19:54:56.494Z,5.52
2019-03-19T19:57:44.167Z,5.52
2019-03-19T20:00:31.972Z,5.55
2019-03-19T20:03:11.543Z,5.48
2019-03-19T20:05:30.501Z,5.35
2019-03-19T20:07:59.113Z,5.28
2019-03-19T20:11:07.467Z,5.24
2019-03-19T20:16:23.495Z,4.98
2019-03-19T20:19:31.806Z,5.00
2019-03-19T20:22:00.311Z,5.03
2019-03-19T20:24:47.987Z,5.02
2019-03-19T20:27:35.634Z,4.96
2019-03-19T20:30:44.796Z,4.90
2019-03-19T20:33:24.243Z,4.90
2019-03-19T20:35:43.591Z,4.85
2019-03-19T20:38:11.991Z,4.86
2019-03-19T20:40:59.641Z,4.82
2019-03-19T20:43:28.107Z,4.63
2019-03-19T20:45:56.516Z,4.61
2019-03-19T20:49:04.838Z,4.64
2019-03-19T20:51:33.269Z,4.64
2019-03-19T20:54:01.659Z,4.62
2019-03-19T20:56:30.059Z,4.55
2019-03-19T20:58:58.449Z,4.53
2019-03-19T21:01:26.856Z,4.57
2019-03-19T21:03:55.251Z,4.55
2019-03-19T21:06:23.656Z,4.53
2019-03-19T21:08:52.054Z,4.53
2019-03-19T21:11:20.457Z,4.48
2019-03-19T21:14:07.968Z,4.46
2019-03-19T21:16:57.374Z,4.48
2019-03-19T21:19:25.622Z,4.50
2019-03-19T21:21:54.006Z,4.50
2019-03-19T21:24:22.406Z,4.43
2019-03-19T21:26:50.818Z,4.34
2019-03-19T21:32:25.807Z,4.19
2019-03-19T21:35:13.462Z,4.25
2019-03-19T21:38:01.108Z,4.23
2019-03-19T21:40:29.520Z,3.83
2019-03-19T21:43:17.032Z,3.92
2019-03-19T21:48:38.789Z,3.98
2019-03-19T21:51:26.315Z,3.99
2019-03-19T21:53:54.726Z,4.01
2019-03-19T21:56:42.240Z,3.97
2019-03-19T21:59:10.652Z,3.96
2019-03-19T22:01:58.401Z,3.95
2019-03-19T22:04:26.815Z,3.79
2019-03-19T22:07:14.469Z,3.73
2019-03-19T22:09:42.871Z,3.68
2019-03-19T22:14:45.267Z,3.52
2019-03-19T22:17:13.681Z,3.39
2019-03-19T22:20:01.317Z,3.36
2019-03-19T22:22:49.021Z,3.36
2019-03-19T22:25:17.371Z,3.36
2019-03-19T22:28:05.024Z,3.25
2019-03-19T22:30:52.580Z,3.36
2019-03-19T22:33:23.190Z,3.36
2019-03-19T22:35:51.098Z,3.40
2019-03-19T22:38:19.504Z,3.44
2019-03-19T22:40:47.906Z,3.45
2019-03-19T22:45:50.681Z,3.46
2019-03-19T22:48:19.088Z,3.45
2019-03-19T22:50:47.484Z,3.44
2019-03-19T22:53:15.894Z,3.44
2019-03-19T22:56:03.622Z,3.44
2019-03-19T22:58:51.152Z,3.49
2019-03-19T23:01:19.563Z,3.40
2019-03-19T23:03:47.958Z,3.43
2019-03-19T23:06:16.347Z,3.40
2019-03-19T23:09:24.730Z,3.42
2019-03-19T23:11:53.139Z,3.45
2019-03-19T23:15:01.439Z,3.38
2019-03-19T23:17:29.844Z,3.39
2019-03-19T23:20:17.482Z,3.33
2019-03-19T23:22:45.893Z,3.27
2019-03-19T23:25:54.200Z,3.17
2019-03-19T23:28:22.608Z,2.94
2019-03-19T23:31:10.354Z,2.89
2019-03-19T23:33:38.755Z,2.94
2019-03-19T23:36:07.169Z,3.03
2019-03-19T23:38:57.991Z,3.01
2019-03-19T23:44:13.832Z,3.01
2019-03-19T23:46:42.229Z,3.04
2019-03-19T23:49:10.640Z,2.88
2019-03-19T23:54:26.494Z,2.86
2019-03-19T23:57:07.231Z,2.82
2019-03-19T23:59:54.885Z,2.84
